Terminal Aerodrome Forecast
Issued by NWS Sterling, VA

Current Version | Previous Version | Graphics & Text | Print | Product List | Glossary On
Versions: 1 2 3 4 5 6 7 8 9 10 11 12 13 14 15 16 17 18
000
FTUS41 KLWX 282326
TAFMRB
TAF
KMRB 282326Z 2900/2924 01005KT 2SM -RADZ BR OVC005
     FM290200 VRB03KT 2SM -DZ BR OVC003
     FM291000 VRB03KT 2SM -RADZ OVC003
     FM291600 09004KT P6SM BKN008 OVC015
     FM292100 09006KT P6SM OVC015=

USA.gov is the U.S. government's official web portal to all federal, state and local government web resources and services.